Time;durP1;ratioP1;P1;durP2;ratioP2;P2;SDS_P1;SDS_P2;PMS_P1;PMS_P2;Temp;Humidity;BMP_temperature;BMP_pressure;BME280_temperature;BME280_humidity;BME280_pressure;Samples;Min_cycle;Max_cycle;Signal;HPM_P1;HPM_P2
2021/05/14 05:30:27;;;;;;;14.90;12.47;;;10.30;99.90;;;11.10;100.00;99283.16;4939165;28;20293;-63
2021/05/14 05:32:54;;;;;;;16.03;12.10;;;10.30;99.90;;;11.14;100.00;99288.94;4957051;28;20997;-62
2021/05/14 05:35:21;;;;;;;15.70;12.27;;;10.30;99.90;;;11.14;100.00;99287.09;4996685;28;20595;-63
2021/05/14 05:37:48;;;;;;;14.90;11.50;;;10.30;99.90;;;11.13;100.00;99290.78;5004497;28;20702;-62
2021/05/14 05:40:15;;;;;;;14.60;12.40;;;10.30;99.90;;;11.16;100.00;99300.31;5003699;28;20297;-63
2021/05/14 05:42:41;;;;;;;15.93;11.83;;;10.30;99.90;;;11.16;100.00;99294.97;5004868;28;20732;-63
2021/05/14 05:45:08;;;;;;;16.97;12.10;;;10.30;99.90;;;11.16;100.00;99293.09;5002561;28;20321;-63
2021/05/14 05:47:35;;;;;;;16.70;12.60;;;10.30;99.90;;;11.15;100.00;99298.66;4999784;28;20553;-62
2021/05/14 05:50:04;;;;;;;17.47;12.73;;;10.30;99.90;;;11.17;100.00;99304.66;4984955;28;20261;-63
2021/05/14 05:52:30;;;;;;;17.00;13.23;;;10.40;99.90;;;11.20;100.00;99306.13;5003843;28;20630;-63
2021/05/14 05:54:56;;;;;;;18.23;12.93;;;10.40;99.90;;;11.23;100.00;99311.97;5004612;28;20366;-62
2021/05/14 05:57:23;;;;;;;18.87;14.03;;;10.40;99.90;;;11.20;100.00;99316.84;5004294;28;20903;-63
2021/05/14 05:59:49;;;;;;;15.60;13.53;;;10.40;99.90;;;11.19;100.00;99316.00;5004779;28;20225;-63
2021/05/14 06:02:16;;;;;;;18.93;13.97;;;10.40;99.90;;;11.22;100.00;99318.31;5004461;28;21065;-63
2021/05/14 06:04:43;;;;;;;18.23;13.97;;;10.40;99.90;;;11.24;100.00;99320.81;5003767;28;20468;-61
2021/05/14 06:07:13;;;;;;;16.63;13.17;;;10.40;99.90;;;11.24;100.00;99310.09;5001934;28;20230;-62
2021/05/14 06:09:42;;;;;;;14.97;13.37;;;10.40;99.90;;;11.31;100.00;99327.09;5003566;28;20652;-63
2021/05/14 06:12:18;;;;;;;18.47;13.67;;;10.50;99.90;;;11.27;100.00;99323.09;5004231;28;20698;-62
2021/05/14 06:14:44;;;;;;;17.67;13.17;;;10.50;99.90;;;11.33;100.00;99317.03;5003708;28;20763;-62
2021/05/14 06:17:12;;;;;;;16.93;13.27;;;10.50;99.90;;;11.34;100.00;99322.19;5003366;28;20537;-62
2021/05/14 06:19:45;;;;;;;18.20;14.27;;;10.50;99.90;;;11.35;100.00;99323.03;5003747;28;20597;-62
2021/05/14 06:22:12;;;;;;;16.50;13.90;;;10.50;99.90;;;11.31;100.00;99321.72;5004067;28;20268;-62
2021/05/14 06:24:39;;;;;;;15.87;13.63;;;10.50;99.90;;;11.36;100.00;99328.19;5005537;28;20562;-62
2021/05/14 06:27:06;;;;;;;16.87;13.63;;;10.50;99.90;;;11.39;100.00;99324.28;5006535;28;20897;-62
2021/05/14 06:29:33;;;;;;;18.63;14.77;;;10.50;99.90;;;11.41;100.00;99330.31;5006463;28;20585;-62
2021/05/14 06:31:59;;;;;;;20.10;14.43;;;10.50;99.90;;;11.45;100.00;99329.75;5009654;28;20521;-62
2021/05/14 06:34:27;;;;;;;16.50;13.90;;;10.60;99.90;;;11.45;100.00;99332.44;5007415;28;20642;-62
2021/05/14 06:36:54;;;;;;;17.03;14.17;;;10.60;99.90;;;11.52;100.00;99327.13;5009822;28;21025;-62
2021/05/14 06:39:21;;;;;;;18.00;14.60;;;10.60;99.90;;;11.53;100.00;99335.00;5006823;28;20783;-63
2021/05/14 06:41:48;;;;;;;17.00;13.37;;;10.60;99.90;;;11.54;100.00;99333.16;5007854;28;20352;-63
2021/05/14 06:44:15;;;;;;;15.70;13.50;;;10.70;99.90;;;11.59;100.00;99333.44;5007225;28;20821;-64
2021/05/14 06:46:43;;;;;;;15.50;13.50;;;10.70;99.90;;;11.65;100.00;99340.69;5006807;28;20230;-62
2021/05/14 06:49:09;;;;;;;16.03;14.33;;;10.70;99.90;;;11.66;100.00;99337.00;5006687;28;20592;-64
2021/05/14 06:51:36;;;;;;;15.70;13.63;;;10.80;99.90;;;11.67;100.00;99345.88;5008177;28;20519;-63
2021/05/14 06:54:03;;;;;;;16.40;13.47;;;10.80;99.90;;;11.71;100.00;99342.63;5006692;28;20800;-63
2021/05/14 06:56:30;;;;;;;14.33;12.13;;;10.80;99.90;;;11.66;100.00;99342.38;5004204;28;20327;-62
2021/05/14 06:58:57;;;;;;;16.63;12.90;;;10.80;99.90;;;11.76;100.00;99342.09;5006375;28;20226;-62
2021/05/14 07:01:24;;;;;;;40.87;15.57;;;10.80;99.90;;;11.80;100.00;99343.38;5012923;28;20524;-62
2021/05/14 07:03:51;;;;;;;15.37;12.83;;;10.90;99.90;;;11.73;100.00;99343.28;5009603;28;20570;-61
2021/05/14 07:06:17;;;;;;;15.07;12.63;;;10.90;99.90;;;11.69;100.00;99341.16;5012365;28;21010;-61
2021/05/14 07:08:46;;;;;;;16.17;12.43;;;10.90;99.90;;;11.82;100.00;99344.03;5006520;28;20603;-61
2021/05/14 07:11:13;;;;;;;15.30;12.80;;;10.90;99.90;;;11.81;100.00;99350.41;5008314;28;20274;-62
2021/05/14 07:13:40;;;;;;;13.47;11.83;;;10.90;99.90;;;11.79;100.00;99344.41;5012294;28;20381;-62
2021/05/14 07:16:07;;;;;;;14.33;12.53;;;10.90;99.90;;;11.74;100.00;99344.94;4988863;28;20567;-62
2021/05/14 07:18:34;;;;;;;16.00;12.50;;;10.90;99.90;;;11.89;100.00;99347.59;5006386;28;20348;-61
2021/05/14 07:21:00;;;;;;;16.17;12.67;;;10.90;99.90;;;11.86;100.00;99348.84;5007217;28;20302;-62
2021/05/14 07:23:36;;;;;;;15.20;12.70;;;11.00;99.90;;;11.95;100.00;99354.91;5007092;28;20659;-61
2021/05/14 07:26:02;;;;;;;16.13;13.23;;;11.00;99.90;;;12.04;100.00;99359.13;5007523;28;20270;-62
2021/05/14 07:28:29;;;;;;;15.10;12.80;;;11.00;99.90;;;11.98;100.00;99356.38;5006245;28;20222;-62
2021/05/14 07:30:56;;;;;;;14.80;12.00;;;11.10;99.90;;;12.02;100.00;99360.31;5013682;28;20916;-62
2021/05/14 07:33:22;;;;;;;14.90;12.60;;;11.10;99.90;;;12.06;100.00;99354.41;5026475;28;20244;-61
2021/05/14 07:35:49;;;;;;;14.90;12.73;;;11.20;99.90;;;12.21;100.00;99357.88;5024956;28;20296;-61
2021/05/14 07:38:15;;;;;;;15.07;11.77;;;11.20;99.90;;;12.09;100.00;99348.66;5026123;28;20984;-60
2021/05/14 07:40:43;;;;;;;13.57;11.33;;;11.30;99.90;;;12.14;100.00;99353.44;5025451;28;20222;-61
2021/05/14 07:43:09;;;;;;;27.37;12.97;;;11.30;99.90;;;12.23;100.00;99349.63;5025811;28;20229;-61
2021/05/14 07:45:36;;;;;;;14.00;11.60;;;11.30;99.90;;;12.29;100.00;99345.34;5025496;28;20222;-62
2021/05/14 07:48:05;;;;;;;11.97;10.20;;;11.40;99.90;;;12.28;100.00;99346.34;5026684;28;20575;-61
2021/05/14 07:50:31;;;;;;;13.20;11.23;;;11.40;99.90;;;12.36;100.00;99349.75;5025303;28;20443;-62
2021/05/14 07:52:58;;;;;;;12.73;10.53;;;11.50;99.90;;;12.50;100.00;99345.31;5026040;28;20585;-62
2021/05/14 07:55:24;;;;;;;14.27;10.97;;;11.50;99.90;;;12.55;100.00;99354.47;5026049;28;20221;-62
2021/05/14 07:57:51;;;;;;;10.23;9.13;;;11.60;99.90;;;12.54;100.00;99357.34;5006831;28;21215;-62
2021/05/14 08:00:18;;;;;;;13.90;10.53;;;11.70;99.90;;;12.85;100.00;99365.03;5026186;28;20349;-62
2021/05/14 08:02:57;;;;;;;10.13;8.97;;;11.70;99.90;;;12.68;100.00;99363.63;5025343;28;20218;-63
2021/05/14 08:05:24;;;;;;;8.43;7.63;;;11.80;99.90;;;12.52;100.00;99365.56;5026014;28;20816;-62
2021/05/14 08:08:06;;;;;;;9.33;7.00;;;11.90;99.90;;;12.57;100.00;99371.19;5028970;28;20265;-62
2021/05/14 08:10:33;;;;;;;9.60;7.47;;;11.90;99.90;;;12.59;100.00;99362.97;5031526;28;20244;-61
2021/05/14 08:12:59;;;;;;;6.47;5.70;;;11.90;99.90;;;12.41;100.00;99367.94;5026312;28;20533;-62
2021/05/14 08:15:26;;;;;;;7.83;6.97;;;11.90;99.90;;;12.63;100.00;99374.94;5025134;28;20630;-61
2021/05/14 08:17:53;;;;;;;6.70;6.03;;;11.90;99.90;;;12.48;100.00;99372.38;5025839;28;20282;-62
2021/05/14 08:20:20;;;;;;;8.77;5.90;;;11.90;99.90;;;12.66;100.00;99379.09;5025609;28;20217;-62
2021/05/14 08:22:47;;;;;;;7.20;5.70;;;11.90;99.90;;;12.64;100.00;99381.97;5020975;28;21032;-61
2021/05/14 08:25:14;;;;;;;7.57;5.27;;;11.90;99.90;;;12.69;100.00;99373.34;5025884;28;20469;-62
2021/05/14 08:27:41;;;;;;;7.23;5.87;;;11.90;99.90;;;12.83;100.00;99383.19;5019141;28;20517;-61
2021/05/14 08:30:10;;;;;;;5.03;4.53;;;11.90;99.90;;;12.53;100.00;99374.44;5021155;28;20723;-62
2021/05/14 08:32:37;;;;;;;4.27;3.87;;;12.00;99.90;;;12.48;100.00;99384.94;5015892;28;20304;-62
2021/05/14 08:35:09;;;;;;;8.07;4.40;;;11.90;99.90;;;12.46;100.00;99385.13;5019227;28;20261;-62
2021/05/14 08:37:37;;;;;;;4.87;4.07;;;11.90;99.90;;;12.84;100.00;99384.84;5025450;28;20567;-61
2021/05/14 08:40:08;;;;;;;5.10;3.53;;;11.90;99.90;;;12.50;100.00;99382.88;5025506;28;20346;-62
2021/05/14 08:42:39;;;;;;;4.50;4.10;;;11.90;99.90;;;12.49;100.00;99384.72;5024545;28;20312;-62
2021/05/14 08:45:08;;;;;;;5.07;4.03;;;11.90;99.90;;;12.66;100.00;99395.22;5025087;28;20256;-62
2021/05/14 08:47:36;;;;;;;6.50;4.63;;;11.90;99.90;;;12.61;100.00;99400.34;5024906;28;20739;-61
2021/05/14 08:50:05;;;;;;;7.07;3.83;;;11.90;99.90;;;12.52;100.00;99400.44;5023446;28;20214;-62
2021/05/14 08:52:35;;;;;;;5.77;3.67;;;11.90;99.90;;;12.43;100.00;99398.94;5032248;28;20511;-62
2021/05/14 08:55:02;;;;;;;4.73;3.50;;;11.90;99.90;;;12.46;100.00;99401.22;5016724;28;20217;-63
2021/05/14 08:57:29;;;;;;;4.97;3.60;;;11.80;99.90;;;12.59;100.00;99408.59;5024356;28;20536;-63
2021/05/14 08:59:56;;;;;;;4.63;3.77;;;11.80;99.90;;;12.67;100.00;99403.06;5020282;28;20775;-63
2021/05/14 09:02:22;;;;;;;5.30;3.77;;;11.80;99.90;;;12.75;100.00;99408.28;5011005;28;20225;-63
2021/05/14 09:04:49;;;;;;;3.67;3.17;;;11.90;99.90;;;12.89;100.00;99417.28;5022910;28;20214;-64
2021/05/14 09:07:16;;;;;;;4.83;4.27;;;11.90;99.90;;;12.93;100.00;99419.41;5020273;28;20238;-63
2021/05/14 09:10:05;;;;;;;5.80;4.23;;;12.00;99.90;;;13.04;100.00;99420.72;5024210;28;20214;-63
2021/05/14 09:12:34;;;;;;;5.60;3.70;;;12.10;99.90;;;12.69;100.00;99411.75;5023571;28;20347;-63
2021/05/14 09:15:02;;;;;;;3.87;3.33;;;12.10;99.90;;;12.86;100.00;99418.50;5018585;28;20692;-63
2021/05/14 09:17:28;;;;;;;4.93;3.17;;;12.20;99.90;;;12.96;100.00;99412.81;5021810;28;20576;-63
2021/05/14 09:19:55;;;;;;;4.20;3.20;;;12.20;99.90;;;13.02;100.00;99416.56;5019826;28;20335;-63
2021/05/14 09:22:24;;;;;;;3.63;2.80;;;12.30;99.90;;;13.09;100.00;99414.78;5022475;28;20480;-63
2021/05/14 09:24:58;;;;;;;3.40;3.10;;;12.30;99.90;;;13.08;100.00;99413.13;5022685;28;20478;-64
2021/05/14 09:27:30;;;;;;;3.30;2.80;;;12.40;99.90;;;13.15;100.00;99409.47;5004945;28;21079;-63
2021/05/14 09:30:10;;;;;;;3.47;2.97;;;12.40;99.90;;;13.18;100.00;99419.00;5025170;28;20905;-63
2021/05/14 09:32:38;;;;;;;2.50;2.23;;;12.50;99.90;;;13.12;100.00;99431.31;5020256;28;20544;-62
2021/05/14 09:35:07;;;;;;;2.53;2.33;;;12.60;99.90;;;13.17;100.00;99422.72;5025322;28;20692;-62
2021/05/14 09:37:45;;;;;;;2.40;2.20;;;12.60;99.90;;;13.40;100.00;99428.66;4999092;28;20582;-62
2021/05/14 09:40:32;;;;;;;2.50;1.97;;;12.70;99.90;;;13.30;100.00;99423.63;5019484;28;21176;-62
2021/05/14 09:43:00;;;;;;;2.43;2.00;;;12.80;99.90;;;13.48;100.00;99422.28;5018442;28;20256;-60
2021/05/14 09:45:30;;;;;;;5.50;2.00;;;12.90;99.90;;;13.42;100.00;99421.22;5024769;28;20692;-62
2021/05/14 09:48:02;;;;;;;2.93;2.07;;;13.00;99.90;;;13.41;100.00;99422.25;5023549;28;20222;-62
2021/05/14 09:50:31;;;;;;;3.53;2.10;;;13.00;99.90;;;13.38;100.00;99424.50;5024545;28;21199;-61
2021/05/14 09:53:10;;;;;;;2.27;2.00;;;13.10;99.90;;;13.62;100.00;99426.72;5022296;28;20794;-62
2021/05/14 09:55:38;;;;;;;2.93;1.50;;;13.20;99.90;;;13.68;100.00;99427.78;5023058;28;20221;-62
2021/05/14 09:58:15;;;;;;;2.50;1.50;;;13.30;99.90;;;13.67;100.00;99416.19;5022074;28;20960;-61
2021/05/14 10:00:43;;;;;;;1.90;1.60;;;13.40;99.90;;;13.41;100.00;99421.41;5025245;28;20408;-62
2021/05/14 10:03:15;;;;;;;1.93;1.40;;;13.40;99.90;;;13.29;100.00;99416.59;5009027;28;20315;-62
2021/05/14 10:05:45;;;;;;;1.93;1.57;;;13.50;99.90;;;13.76;100.00;99419.53;5027541;28;20224;-62
2021/05/14 10:08:15;;;;;;;2.23;1.67;;;13.50;99.90;;;13.68;100.00;99420.56;5025494;28;20868;-63
2021/05/14 10:10:42;;;;;;;2.63;1.33;;;13.60;99.90;;;13.84;100.00;99414.00;5027229;28;20332;-62
2021/05/14 10:13:09;;;;;;;2.63;1.73;;;13.60;99.90;;;13.65;100.00;99411.03;5022866;28;20906;-64
2021/05/14 10:15:36;;;;;;;2.77;1.53;;;13.60;99.90;;;13.64;100.00;99408.53;5025734;28;20225;-62
2021/05/14 10:18:06;;;;;;;3.03;1.37;;;13.70;99.90;;;13.88;100.00;99412.56;5026084;28;20272;-62
2021/05/14 10:20:36;;;;;;;3.60;1.40;;;13.70;99.90;;;14.05;100.00;99423.81;5020533;28;20491;-61
2021/05/14 10:23:05;;;;;;;2.07;1.43;;;13.80;99.90;;;14.00;100.00;99414.47;5025525;28;20222;-63
2021/05/14 10:28:25;;;;;;;2.93;1.60;;;14.00;99.90;;;13.98;100.00;99408.47;5026030;28;20217;-63
2021/05/14 10:31:25;;;;;;;4.97;1.80;;;14.10;99.90;;;14.30;100.00;99401.53;5027766;28;20441;-61
2021/05/14 10:33:55;;;;;;;3.10;1.33;;;14.30;99.90;;;15.05;100.00;99408.47;5028036;28;20512;-62
2021/05/14 10:36:49;;;;;;;3.43;1.50;;;14.50;99.90;;;14.80;100.00;99399.38;5026231;28;20230;-62
2021/05/14 10:39:27;;;;;;;1.98;1.30;;;14.80;99.90;;;14.69;100.00;99392.72;5027381;28;20229;-62
2021/05/14 10:41:59;;;;;;;1.97;1.60;;;15.00;99.90;;;14.80;100.00;99402.06;5026945;28;20221;-62
2021/05/14 10:44:47;;;;;;;1.60;1.50;;;15.20;99.90;;;15.06;100.00;99399.34;5021519;28;20891;-63
2021/05/14 10:47:48;;;;;;;2.87;1.60;;;15.30;99.90;;;15.19;100.00;99409.31;5020129;28;20340;-62
2021/05/14 10:50:41;;;;;;;2.45;1.27;;;15.40;99.90;;;15.39;100.00;99398.47;5027371;28;20347;-61
2021/05/14 10:53:47;;;;;;;1.70;1.52;;;15.50;99.90;;;15.55;100.00;99403.44;5027283;28;20721;-62
2021/05/14 10:56:50;;;;;;;1.65;1.50;;;15.80;99.90;;;15.59;100.00;99403.84;5025095;28;20809;-61
2021/05/14 10:59:32;;;;;;;2.58;1.60;;;16.00;99.90;;;15.82;100.00;99397.97;5020106;28;20522;-61
2021/05/14 11:01:59;;;;;;;1.73;1.58;;;16.20;99.90;;;15.66;100.00;99396.56;5021291;28;20276;-61
2021/05/14 11:04:45;;;;;;;4.10;1.80;;;16.40;99.90;;;16.08;100.00;99393.25;5019759;28;20210;-61
2021/05/14 11:07:40;;;;;;;3.05;1.63;;;16.60;99.90;;;16.96;100.00;99390.63;5025992;28;20464;-62
2021/05/14 11:10:29;;;;;;;2.85;1.35;;;17.00;99.90;;;17.09;100.00;99384.28;4974212;28;20742;-62
2021/05/14 11:12:56;;;;;;;2.22;1.55;;;17.40;99.90;;;17.40;100.00;99389.59;5019135;28;20436;-62
2021/05/14 11:44:34;;;;;;;3.25;1.30;;;18.50;99.90;;;17.46;100.00;99385.16;4932692;28;20874;-61
2021/05/14 12:27:21;;;;;;;2.53;2.30;;;19.10;96.10;;;17.74;100.00;99381.97;4919275;28;20553;-61
2021/05/14 12:30:40;;;;;;;2.17;1.35;;;19.20;95.20;;;17.72;100.00;99381.34;4923570;28;20270;-62
2021/05/14 16:33:03;;;;;;;6.80;5.68;;;15.50;99.90;;;15.57;100.00;99449.91;4943815;28;20240;-62
2021/05/14 20:47:50;;;;;;;39.70;33.17;;;10.50;99.90;;;11.34;100.00;99599.91;4801132;29;20490;-62
2021/05/14 22:43:46;;;;;;;23.33;19.83;;;8.40;99.90;;;9.36;100.00;99649.06;5010090;28;20459;-63
